Time;durP1;ratioP1;P1;durP2;ratioP2;P2;SDS_P1;SDS_P2;PMS_P1;PMS_P2;Temp;Humidity;BMP_temperature;BMP_pressure;BME280_temperature;BME280_humidity;BME280_pressure;Samples;Min_cycle;Max_cycle;Signal;HPM_P1;HPM_P2
2021/08/31 00:01:20;;;;;;;;;;;;;;;22.90;50.46;102501.78;5162676;27;19935;-83
2021/08/31 00:03:45;;;;;;;;;;;;;;;23.09;50.07;102506.84;5145314;27;20276;-84
2021/08/31 00:06:10;;;;;;;;;;;;;;;23.38;49.28;102507.41;5144824;27;19922;-82
2021/08/31 00:08:35;;;;;;;;;;;;;;;23.49;48.96;102509.34;5145058;27;19936;-83
2021/08/31 00:11:00;;;;;;;;;;;;;;;23.60;48.43;102512.19;5145612;27;19911;-83
2021/08/31 00:13:26;;;;;;;;;;;;;;;23.50;48.50;102513.88;5144852;27;20438;-83
2021/08/31 00:15:51;;;;;;;;;;;;;;;23.42;48.87;102516.38;5144439;27;19951;-81
2021/08/31 00:18:16;;;;;;;;;;;;;;;23.59;48.20;102515.94;5163186;27;19915;-82
2021/08/31 00:20:41;;;;;;;;;;;;;;;23.62;48.16;102510.19;5144332;27;20001;-83
2021/08/31 00:23:07;;;;;;;;;;;;;;;23.30;48.73;102502.47;5161988;27;19915;-83
2021/08/31 00:25:32;;;;;;;;;;;;;;;23.46;48.31;102516.03;5162820;27;19915;-83
2021/08/31 00:27:58;;;;;;;;;;;;;;;23.39;48.61;102520.25;5162616;27;19970;-83
2021/08/31 00:30:24;;;;;;;;;;;;;;;23.11;49.08;102515.91;5144244;27;19959;-83
2021/08/31 00:32:49;;;;;;;;;;;;;;;23.17;49.21;102513.59;5144486;27;19919;-83
2021/08/31 00:35:15;;;;;;;;;;;;;;;23.28;48.93;102517.38;5143155;27;19964;-84
2021/08/31 00:37:40;;;;;;;;;;;;;;;23.41;48.10;102520.13;5162036;27;19915;-82
2021/08/31 00:40:05;;;;;;;;;;;;;;;23.34;48.23;102523.34;5143612;27;20021;-83
2021/08/31 00:42:31;;;;;;;;;;;;;;;23.45;48.33;102529.94;5162570;27;19930;-83
2021/08/31 00:44:56;;;;;;;;;;;;;;;23.41;48.46;102528.41;5143415;27;19922;-83
2021/08/31 00:47:21;;;;;;;;;;;;;;;23.17;49.04;102521.88;5162067;27;19919;-81
2021/08/31 00:49:47;;;;;;;;;;;;;;;23.27;49.13;102521.16;5161242;27;19915;-83
2021/08/31 00:52:13;;;;;;;;;;;;;;;23.24;48.83;102521.41;5142075;27;19921;-83
2021/08/31 00:54:39;;;;;;;;;;;;;;;23.17;49.24;102520.97;5126571;27;19919;-83
2021/08/31 00:57:07;;;;;;;;;;;;;;;23.51;48.37;102523.94;5127223;27;19926;-83
2021/08/31 00:59:33;;;;;;;;;;;;;;;23.48;48.13;102526.94;5162015;27;20138;-83
2021/08/31 01:01:58;;;;;;;;;;;;;;;23.03;49.31;102523.84;5142901;27;19947;-83
2021/08/31 01:04:26;;;;;;;;;;;;;;;23.32;49.25;102524.44;5143120;27;19915;-84
2021/08/31 01:06:53;;;;;;;;;;;;;;;23.01;49.46;102526.72;5141746;27;19926;-84
2021/08/31 01:09:18;;;;;;;;;;;;;;;23.23;48.85;102520.50;5160433;27;19915;-83
2021/08/31 01:11:45;;;;;;;;;;;;;;;23.45;48.42;102533.56;5141676;27;20110;-83
2021/08/31 01:14:11;;;;;;;;;;;;;;;23.11;49.34;102530.56;5141453;27;19915;-83
2021/08/31 01:16:36;;;;;;;;;;;;;;;23.35;48.47;102526.97;5140937;27;19922;-82
2021/08/31 01:19:02;;;;;;;;;;;;;;;22.97;49.10;102541.75;5159824;27;20019;-81
2021/08/31 01:21:28;;;;;;;;;;;;;;;23.44;47.78;102533.69;5140201;27;19995;-81
2021/08/31 01:23:54;;;;;;;;;;;;;;;23.46;48.31;102534.44;5159279;27;19922;-83
2021/08/31 01:26:20;;;;;;;;;;;;;;;23.05;49.13;102532.88;5142263;27;19915;-82
2021/08/31 01:28:45;;;;;;;;;;;;;;;23.33;48.24;102534.50;5141954;27;19926;-83
2021/08/31 01:31:10;;;;;;;;;;;;;;;23.23;48.37;102531.53;5141038;27;19971;-82
2021/08/31 01:33:35;;;;;;;;;;;;;;;23.07;49.06;102547.44;5140921;27;19922;-82
2021/08/31 01:36:14;;;;;;;;;;;;;;;22.77;50.31;102545.97;5142182;27;19927;-82
2021/08/31 01:38:39;;;;;;;;;;;;;;;22.74;50.50;102547.06;5141412;27;20340;-83
2021/08/31 01:41:04;;;;;;;;;;;;;;;22.96;49.78;102548.25;5141788;27;19930;-83
2021/08/31 01:43:30;;;;;;;;;;;;;;;23.10;49.31;102552.78;5141713;27;20387;-82
2021/08/31 01:45:55;;;;;;;;;;;;;;;22.87;49.87;102554.44;5142712;27;19929;-82
2021/08/31 01:48:20;;;;;;;;;;;;;;;23.22;49.12;102553.75;5160140;27;19994;-82
2021/08/31 01:50:45;;;;;;;;;;;;;;;23.15;49.36;102551.44;5141430;27;19915;-82
2021/08/31 01:53:12;;;;;;;;;;;;;;;23.16;48.83;102555.13;5142522;27;19940;-83
2021/08/31 01:55:38;;;;;;;;;;;;;;;22.74;50.25;102551.72;5160725;27;20295;-82
2021/08/31 01:58:04;;;;;;;;;;;;;;;23.12;49.36;102550.81;5142173;27;19923;-83
2021/08/31 02:00:30;;;;;;;;;;;;;;;23.26;48.76;102558.94;5141518;27;19915;-83
2021/08/31 02:02:55;;;;;;;;;;;;;;;23.04;48.92;102553.19;5161120;27;19915;-84
2021/08/31 02:05:20;;;;;;;;;;;;;;;23.40;48.15;102554.25;5140994;27;19915;-83
2021/08/31 02:07:46;;;;;;;;;;;;;;;23.15;49.32;102556.97;5142381;27;20026;-83
2021/08/31 02:10:12;;;;;;;;;;;;;;;23.07;49.28;102555.72;5160971;27;19919;-83
2021/08/31 02:12:37;;;;;;;;;;;;;;;23.04;48.87;102559.63;5142401;27;20002;-83
2021/08/31 02:15:03;;;;;;;;;;;;;;;22.76;50.27;102557.97;5143170;27;19919;-83
2021/08/31 02:17:28;;;;;;;;;;;;;;;22.67;50.34;102556.78;5161292;27;20361;-82
2021/08/31 02:19:54;;;;;;;;;;;;;;;22.72;50.38;102557.34;5161365;27;20372;-83
2021/08/31 02:22:19;;;;;;;;;;;;;;;22.61;50.21;102554.44;5143041;27;20456;-82
2021/08/31 02:24:44;;;;;;;;;;;;;;;22.93;49.65;102554.91;5144336;27;20504;-84
2021/08/31 02:27:09;;;;;;;;;;;;;;;22.57;50.67;102556.56;5144958;27;19915;-82
2021/08/31 02:29:35;;;;;;;;;;;;;;;22.73;49.98;102550.81;5142627;27;19930;-83
2021/08/31 02:32:00;;;;;;;;;;;;;;;23.03;49.32;102551.44;5161927;27;20382;-83
2021/08/31 02:34:25;;;;;;;;;;;;;;;23.12;48.78;102548.91;5143181;27;19915;-83
2021/08/31 02:36:51;;;;;;;;;;;;;;;22.55;50.41;102547.50;5162487;27;19946;-82
2021/08/31 02:39:16;;;;;;;;;;;;;;;23.07;49.07;102547.44;5162212;27;19914;-83
2021/08/31 02:41:41;;;;;;;;;;;;;;;23.06;48.75;102549.34;5161520;27;19930;-82
2021/08/31 02:44:06;;;;;;;;;;;;;;;23.19;48.43;102546.59;5142599;27;19921;-82
2021/08/31 02:46:32;;;;;;;;;;;;;;;23.11;48.59;102551.78;5143882;27;19922;-82
2021/08/31 02:48:57;;;;;;;;;;;;;;;23.17;48.32;102549.47;5143423;27;19915;-82
2021/08/31 02:51:22;;;;;;;;;;;;;;;23.00;48.78;102547.91;5143476;27;19915;-84
2021/08/31 02:53:47;;;;;;;;;;;;;;;23.06;48.50;102549.34;5160485;27;20277;-83
2021/08/31 02:56:13;;;;;;;;;;;;;;;23.06;48.47;102546.56;5143915;27;20275;-82
2021/08/31 02:58:38;;;;;;;;;;;;;;;23.00;48.52;102550.66;5161720;27;19919;-83
2021/08/31 03:03:47;;;;;;;;;;;;;;;22.67;49.50;102547.63;5161137;27;20494;-83
2021/08/31 03:06:12;;;;;;;;;;;;;;;22.74;49.24;102546.19;5141535;27;19954;-84
2021/08/31 03:08:37;;;;;;;;;;;;;;;22.78;49.21;102543.09;5142834;27;19915;-82
2021/08/31 03:11:03;;;;;;;;;;;;;;;22.56;49.49;102546.50;5161077;27;19975;-83
2021/08/31 03:13:28;;;;;;;;;;;;;;;22.63;49.57;102547.84;5125479;27;19919;-83
2021/08/31 03:15:53;;;;;;;;;;;;;;;22.18;50.84;102558.34;5144026;27;19911;-83
2021/08/31 03:18:18;;;;;;;;;;;;;;;22.51;50.13;102557.00;5147326;27;19915;-82
2021/08/31 03:20:44;;;;;;;;;;;;;;;22.79;49.57;102552.25;5166432;27;19938;-83
2021/08/31 03:23:09;;;;;;;;;;;;;;;22.64;49.77;102557.84;5146583;27;19980;-82
2021/08/31 03:25:34;;;;;;;;;;;;;;;22.65;49.60;102556.88;5147404;27;20010;-84
2021/08/31 03:27:59;;;;;;;;;;;;;;;22.86;49.06;102550.81;5146545;27;19973;-83
2021/08/31 03:30:25;;;;;;;;;;;;;;;22.51;49.33;102559.75;5147087;27;19927;-82
2021/08/31 03:32:50;;;;;;;;;;;;;;;22.58;49.49;102557.44;5147921;27;19922;-83
2021/08/31 03:35:15;;;;;;;;;;;;;;;22.71;49.31;102554.69;5147021;27;19910;-83
2021/08/31 03:37:41;;;;;;;;;;;;;;;22.51;49.77;102557.00;5145351;27;20039;-84
2021/08/31 03:40:06;;;;;;;;;;;;;;;22.47;49.92;102564.59;5128157;27;20006;-84
2021/08/31 03:42:31;;;;;;;;;;;;;;;22.50;49.87;102566.25;5144689;27;20367;-83
2021/08/31 03:44:57;;;;;;;;;;;;;;;22.49;49.79;102570.00;5145177;27;19915;-83
2021/08/31 03:47:22;;;;;;;;;;;;;;;22.50;49.40;102574.53;5163077;27;19930;-82
2021/08/31 03:49:48;;;;;;;;;;;;;;;22.71;49.06;102571.25;5144641;27;19915;-82
2021/08/31 03:52:13;;;;;;;;;;;;;;;22.65;49.08;102572.56;5145712;27;19915;-81
2021/08/31 03:54:39;;;;;;;;;;;;;;;22.41;49.64;102569.66;5128225;27;19919;-83
2021/08/31 03:57:04;;;;;;;;;;;;;;;22.61;49.08;102571.00;5146285;27;19915;-83
2021/08/31 03:59:30;;;;;;;;;;;;;;;22.35;49.58;102565.47;5146443;27;19929;-83
2021/08/31 04:01:55;;;;;;;;;;;;;;;22.40;49.70;102568.78;5164037;27;19922;-82
2021/08/31 04:04:20;;;;;;;;;;;;;;;22.72;49.00;102557.34;5145901;27;19915;-84
2021/08/31 04:06:45;;;;;;;;;;;;;;;22.61;49.08;102563.59;5145314;27;19915;-84
2021/08/31 04:09:11;;;;;;;;;;;;;;;22.40;49.59;102566.00;5163451;27;19968;-84
2021/08/31 04:11:36;;;;;;;;;;;;;;;22.38;49.48;102569.88;5164065;27;20018;-83
2021/08/31 04:14:01;;;;;;;;;;;;;;;22.35;49.47;102572.88;5163760;27;19919;-83
2021/08/31 04:16:26;;;;;;;;;;;;;;;22.57;49.13;102577.72;5145316;27;19915;-83
2021/08/31 04:18:51;;;;;;;;;;;;;;;22.42;48.98;102575.06;5145287;27;19919;-83
2021/08/31 04:21:17;;;;;;;;;;;;;;;22.72;48.27;102581.25;5143907;27;20368;-83
2021/08/31 04:23:42;;;;;;;;;;;;;;;22.54;48.79;102584.38;5164653;27;20468;-83
2021/08/31 04:26:09;;;;;;;;;;;;;;;22.69;48.40;102593.44;5145070;27;19995;-84
2021/08/31 04:28:34;;;;;;;;;;;;;;;22.54;48.27;102600.00;5164241;27;19923;-83
2021/08/31 04:31:00;;;;;;;;;;;;;;;22.21;49.48;102602.25;5145244;27;19949;-83
2021/08/31 04:33:25;;;;;;;;;;;;;;;22.39;49.05;102596.44;5161571;27;19922;-82
2021/08/31 04:35:50;;;;;;;;;;;;;;;22.31;49.05;102602.50;5142171;27;19922;-83
2021/08/31 04:38:16;;;;;;;;;;;;;;;22.44;48.83;102603.41;5144054;27;19921;-84
2021/08/31 04:40:41;;;;;;;;;;;;;;;22.20;49.16;102597.72;5140809;27;19923;-82
2021/08/31 04:43:06;;;;;;;;;;;;;;;22.26;48.99;102604.69;5141960;27;19915;-83
2021/08/31 04:45:31;;;;;;;;;;;;;;;22.08;49.79;102598.56;5142630;27;20014;-83
2021/08/31 04:47:57;;;;;;;;;;;;;;;22.37;48.70;102593.81;5141817;27;19912;-83
2021/08/31 04:50:22;;;;;;;;;;;;;;;22.53;48.26;102598.28;5141543;27;19922;-83
2021/08/31 04:52:47;;;;;;;;;;;;;;;22.29;48.86;102598.94;5140120;27;19935;-83
2021/08/31 04:55:12;;;;;;;;;;;;;;;22.56;48.01;102589.78;5142110;27;19920;-84
2021/08/31 04:57:38;;;;;;;;;;;;;;;21.42;51.22;102604.75;5141193;27;19938;-82
2021/08/31 05:00:05;;;;;;;;;;;;;;;21.70;51.05;102594.66;5141248;27;19927;-81
2021/08/31 05:02:32;;;;;;;;;;;;;;;22.18;49.41;102594.19;5143667;27;19938;-84
2021/08/31 05:04:58;;;;;;;;;;;;;;;22.43;48.78;102598.88;5141516;27;19916;-83
2021/08/31 05:07:23;;;;;;;;;;;;;;;21.84;50.04;102602.00;5142923;27;19916;-86
2021/08/31 05:09:48;;;;;;;;;;;;;;;22.04;49.67;102597.91;5143039;27;19915;-82
2021/08/31 05:12:13;;;;;;;;;;;;;;;21.89;50.40;102605.34;5142771;27;19915;-83
2021/08/31 05:14:39;;;;;;;;;;;;;;;22.16;49.43;102601.66;5141920;27;20440;-84
2021/08/31 05:17:04;;;;;;;;;;;;;;;22.33;48.80;102605.16;5140571;27;19968;-83
2021/08/31 05:19:30;;;;;;;;;;;;;;;22.31;49.23;102613.53;5137328;27;19985;-81
2021/08/31 05:21:57;;;;;;;;;;;;;;;21.64;51.20;102603.34;5137648;27;19915;-81
2021/08/31 05:24:24;;;;;;;;;;;;;;;22.03;49.99;102607.16;5137744;27;19960;-83
2021/08/31 05:26:49;;;;;;;;;;;;;;;22.32;48.97;102611.69;5135207;27;19927;-81
2021/08/31 05:29:14;;;;;;;;;;;;;;;22.09;49.89;102612.25;5135735;27;19923;-82
2021/08/31 05:31:42;;;;;;;;;;;;;;;21.99;50.26;102615.75;5136626;27;19922;-83
2021/08/31 05:34:07;;;;;;;;;;;;;;;22.04;50.37;102619.06;5137634;27;20284;-83
2021/08/31 05:36:33;;;;;;;;;;;;;;;22.32;49.63;102625.47;5137203;27;19915;-84
2021/08/31 05:38:58;;;;;;;;;;;;;;;22.72;48.10;102626.31;5135628;27;19915;-84
2021/08/31 05:41:23;;;;;;;;;;;;;;;22.76;48.61;102627.84;5137831;27;19964;-82
2021/08/31 05:43:49;;;;;;;;;;;;;;;22.63;48.85;102624.19;5137732;27;19919;-84
2021/08/31 05:46:14;;;;;;;;;;;;;;;22.73;48.86;102621.66;5136549;27;19984;-85
2021/08/31 05:48:39;;;;;;;;;;;;;;;22.77;48.86;102637.03;5136072;27;19916;-83
2021/08/31 05:51:07;;;;;;;;;;;;;;;22.99;48.16;102633.59;5137291;27;19922;-83
2021/08/31 05:53:33;;;;;;;;;;;;;;;23.03;48.12;102634.28;5135599;27;19915;-84
2021/08/31 05:55:59;;;;;;;;;;;;;;;23.13;47.75;102639.03;5138405;27;19915;-87
2021/08/31 05:58:24;;;;;;;;;;;;;;;23.34;47.33;102642.09;5137735;27;19923;-86
2021/08/31 06:00:49;;;;;;;;;;;;;;;23.49;46.90;102651.16;5136789;27;20435;-87
2021/08/31 06:03:14;;;;;;;;;;;;;;;23.33;47.68;102653.28;5136137;27;19910;-83
2021/08/31 06:05:39;;;;;;;;;;;;;;;23.48;47.49;102649.38;5136048;27;20484;-82
2021/08/31 06:08:08;;;;;;;;;;;;;;;23.64;46.93;102651.88;5134667;27;19915;-83
2021/08/31 06:10:33;;;;;;;;;;;;;;;23.56;47.31;102657.09;5134721;27;19922;-84
2021/08/31 06:13:00;;;;;;;;;;;;;;;23.83;46.54;102662.41;5126004;27;19920;-81
2021/08/31 06:15:26;;;;;;;;;;;;;;;23.99;46.69;102656.66;5116972;27;20010;-82
2021/08/31 06:17:52;;;;;;;;;;;;;;;23.81;47.22;102658.00;5114318;28;19977;-82
2021/08/31 06:20:17;;;;;;;;;;;;;;;23.77;46.81;102662.00;5113758;28;19916;-81
2021/08/31 06:22:44;;;;;;;;;;;;;;;23.68;47.45;102664.44;5115768;28;19922;-83
2021/08/31 06:25:09;;;;;;;;;;;;;;;24.13;46.81;102663.03;5114229;28;19962;-82
2021/08/31 06:27:35;;;;;;;;;;;;;;;24.01;46.86;102664.84;5112232;28;19976;-82
2021/08/31 06:30:00;;;;;;;;;;;;;;;23.94;47.31;102669.94;5111587;28;20002;-82
2021/08/31 06:32:25;;;;;;;;;;;;;;;24.21;46.82;102672.47;5115144;28;19916;-81
2021/08/31 06:34:50;;;;;;;;;;;;;;;24.45;46.48;102670.72;5112887;28;19916;-82
2021/08/31 06:37:16;;;;;;;;;;;;;;;24.54;45.96;102672.75;5114128;28;19968;-82
2021/08/31 06:39:41;;;;;;;;;;;;;;;24.89;45.66;102671.88;5113744;28;20377;-82
2021/08/31 06:42:06;;;;;;;;;;;;;;;24.38;46.72;102676.72;5114962;28;20246;-82
2021/08/31 06:44:31;;;;;;;;;;;;;;;24.62;45.95;102674.94;5117259;28;19927;-81
2021/08/31 06:46:57;;;;;;;;;;;;;;;24.64;46.47;102667.38;5115016;28;19916;-82
2021/08/31 06:49:22;;;;;;;;;;;;;;;25.05;45.67;102677.94;5115420;28;20380;-82
2021/08/31 06:51:48;;;;;;;;;;;;;;;24.70;46.07;102678.88;5117242;28;19915;-81
2021/08/31 06:54:13;;;;;;;;;;;;;;;25.12;46.13;102676.44;5118800;28;19916;-82
2021/08/31 06:56:38;;;;;;;;;;;;;;;25.02;46.44;102675.41;5121111;28;19916;-82
2021/08/31 06:59:03;;;;;;;;;;;;;;;25.42;45.24;102683.28;5118848;28;19959;-82
2021/08/31 07:01:29;;;;;;;;;;;;;;;24.66;47.54;102677.34;5118016;28;19915;-82
2021/08/31 07:03:54;;;;;;;;;;;;;;;25.10;46.37;102675.66;5118718;28;19969;-80
2021/08/31 07:06:19;;;;;;;;;;;;;;;25.07;46.10;102683.34;5118640;28;19916;-81
2021/08/31 07:08:44;;;;;;;;;;;;;;;24.95;46.81;102679.69;5118180;28;19915;-79
2021/08/31 07:11:10;;;;;;;;;;;;;;;24.98;46.53;102678.56;5119145;28;19915;-82
2021/08/31 07:13:35;;;;;;;;;;;;;;;25.43;45.72;102681.41;5122538;27;20395;-81
2021/08/31 07:16:00;;;;;;;;;;;;;;;25.36;46.05;102685.69;5130061;27;20010;-82
2021/08/31 07:18:25;;;;;;;;;;;;;;;25.10;46.87;102688.66;5129797;27;20022;-83
2021/08/31 07:20:51;;;;;;;;;;;;;;;25.24;46.36;102690.28;5126011;27;19995;-81
2021/08/31 07:23:16;;;;;;;;;;;;;;;25.12;47.08;102693.06;5123283;27;20020;-83
2021/08/31 07:25:42;;;;;;;;;;;;;;;24.95;47.02;102690.75;5118523;28;19920;-81
2021/08/31 07:28:07;;;;;;;;;;;;;;;25.37;46.69;102687.44;5120245;28;19937;-82
2021/08/31 07:30:33;;;;;;;;;;;;;;;25.43;45.95;102684.19;5118182;28;20022;-82
2021/08/31 07:32:58;;;;;;;;;;;;;;;25.82;45.00;102688.28;5120620;28;20463;-81
2021/08/31 07:35:23;;;;;;;;;;;;;;;26.19;44.08;102689.88;5117637;28;20418;-81
2021/08/31 07:37:49;;;;;;;;;;;;;;;25.09;46.48;102689.63;5118994;28;19921;-82
2021/08/31 07:40:14;;;;;;;;;;;;;;;25.60;45.13;102694.72;5127809;27;19920;-81
2021/08/31 07:42:39;;;;;;;;;;;;;;;25.39;45.50;102694.59;5120848;27;19915;-82
2021/08/31 07:45:08;;;;;;;;;;;;;;;26.28;43.67;102690.97;5121827;27;19923;-81
2021/08/31 07:47:33;;;;;;;;;;;;;;;25.36;46.41;102694.88;5140374;27;20364;-82
2021/08/31 07:49:59;;;;;;;;;;;;;;;25.70;44.44;102692.09;5121738;27;19956;-82
2021/08/31 07:52:25;;;;;;;;;;;;;;;26.12;44.29;102692.31;5122021;27;19915;-81
2021/08/31 07:54:50;;;;;;;;;;;;;;;25.69;44.53;102684.78;5121006;27;20360;-82
2021/08/31 07:57:16;;;;;;;;;;;;;;;25.46;44.41;102698.66;5121351;27;19916;-82
2021/08/31 07:59:41;;;;;;;;;;;;;;;25.87;43.75;102695.34;5120042;27;19927;-81
2021/08/31 08:02:06;;;;;;;;;;;;;;;26.13;42.81;102691.31;5120013;27;19916;-82
2021/08/31 08:04:32;;;;;;;;;;;;;;;25.61;44.23;102704.81;5121661;27;19937;-82
2021/08/31 08:06:57;;;;;;;;;;;;;;;26.52;42.13;102697.19;5121020;27;19916;-80
2021/08/31 08:09:22;;;;;;;;;;;;;;;26.61;41.96;102694.63;5139436;27;19923;-82
2021/08/31 08:11:47;;;;;;;;;;;;;;;25.78;43.40;102705.31;5122521;27;19933;-82
2021/08/31 08:14:13;;;;;;;;;;;;;;;26.45;41.71;102704.31;5140112;27;19915;-82
2021/08/31 08:16:38;;;;;;;;;;;;;;;26.44;41.69;102705.31;5139164;27;19915;-82
2021/08/31 08:19:04;;;;;;;;;;;;;;;26.30;42.45;102708.38;5120932;27;20022;-82
2021/08/31 08:21:30;;;;;;;;;;;;;;;26.90;41.30;102707.88;5121407;27;19958;-82
2021/08/31 08:23:55;;;;;;;;;;;;;;;26.91;41.31;102707.75;5140226;27;19915;-81
2021/08/31 08:26:20;;;;;;;;;;;;;;;26.14;42.70;102711.59;5128917;27;20394;-82
2021/08/31 08:28:46;;;;;;;;;;;;;;;26.37;42.55;102711.53;5128948;27;19927;-81
2021/08/31 08:31:11;;;;;;;;;;;;;;;26.49;42.21;102716.00;5130880;27;19907;-82
2021/08/31 08:33:36;;;;;;;;;;;;;;;26.88;41.33;102719.13;5127375;27;19916;-81
2021/08/31 08:36:03;;;;;;;;;;;;;;;26.85;40.91;102716.63;5148075;27;19957;-82
2021/08/31 08:38:28;;;;;;;;;;;;;;;26.66;40.94;102715.47;5145685;27;19928;-81
2021/08/31 08:40:56;;;;;;;;;;;;;;;26.53;40.71;102723.06;5147303;27;20013;-82
2021/08/31 08:43:21;;;;;;;;;;;;;;;27.21;39.73;102718.03;5129624;27;19958;-82
2021/08/31 08:45:49;;;;;;;;;;;;;;;26.80;40.75;102728.16;5148925;27;19926;-82
2021/08/31 08:48:22;;;;;;;;;;;;;;;27.35;39.44;102729.84;5125451;27;19961;-82
2021/08/31 08:50:48;;;;;;;;;;;;;;;27.52;38.94;102718.09;5132407;27;19922;-81
2021/08/31 08:53:13;;;;;;;;;;;;;;;26.59;40.89;102724.44;5148409;27;19922;-82
2021/08/31 08:55:38;;;;;;;;;;;;;;;26.92;39.96;102725.28;5147256;27;19919;-82
2021/08/31 08:58:04;;;;;;;;;;;;;;;26.90;39.47;102727.34;5150287;27;20347;-82
2021/08/31 09:00:48;;;;;;;;;;;;;;;27.24;39.25;102723.31;5147117;27;19922;-81
2021/08/31 09:03:17;;;;;;;;;;;;;;;27.25;39.17;102726.97;5128972;27;20296;-82
2021/08/31 09:05:42;;;;;;;;;;;;;;;26.61;40.04;102728.81;5146797;27;19923;-81
2021/08/31 09:08:08;;;;;;;;;;;;;;;27.04;39.56;102735.34;5148330;27;20368;-81
2021/08/31 09:10:33;;;;;;;;;;;;;;;27.10;39.44;102729.25;5146556;27;20364;-82
2021/08/31 09:12:59;;;;;;;;;;;;;;;27.42;39.16;102736.63;5129844;27;20071;-83
2021/08/31 09:15:35;;;;;;;;;;;;;;;26.79;40.08;102733.84;5145822;27;19955;-83
2021/08/31 09:18:04;;;;;;;;;;;;;;;27.01;40.22;102735.59;5131019;27;19923;-80
2021/08/31 09:20:40;;;;;;;;;;;;;;;27.72;38.55;102732.97;5122415;27;19930;-81
2021/08/31 09:23:07;;;;;;;;;;;;;;;27.33;38.91;102729.13;5118675;27;19915;-81
2021/08/31 09:25:37;;;;;;;;;;;;;;;27.78;38.63;102739.88;5120230;27;19920;-81
2021/08/31 09:28:17;;;;;;;;;;;;;;;27.32;38.17;102736.56;5120217;27;19919;-80
2021/08/31 09:30:42;;;;;;;;;;;;;;;27.38;37.70;102733.22;5139566;27;19924;-83
2021/08/31 09:33:09;;;;;;;;;;;;;;;27.37;38.00;102736.13;5120412;27;19911;-82
2021/08/31 09:35:35;;;;;;;;;;;;;;;26.98;38.44;102746.97;5139536;27;19923;-83
2021/08/31 09:38:01;;;;;;;;;;;;;;;27.58;38.15;102750.91;5119695;27;19919;-83
2021/08/31 09:40:30;;;;;;;;;;;;;;;28.52;35.94;102741.38;5138585;27;19923;-83
2021/08/31 09:42:55;;;;;;;;;;;;;;;28.42;35.59;102735.78;5119625;27;19919;-83
2021/08/31 09:45:29;;;;;;;;;;;;;;;27.84;37.17;102739.31;5136657;27;19916;-82
2021/08/31 09:47:56;;;;;;;;;;;;;;;28.96;35.08;102744.59;5134572;27;19919;-82
2021/08/31 09:50:30;;;;;;;;;;;;;;;29.30;34.64;102738.53;5118959;27;19966;-83
2021/08/31 09:53:01;;;;;;;;;;;;;;;28.72;36.35;102736.72;5113422;27;20308;-83
2021/08/31 09:55:26;;;;;;;;;;;;;;;28.74;36.41;102731.88;5118384;27;19922;-81
2021/08/31 09:58:05;;;;;;;;;;;;;;;28.40;37.03;102736.94;5118086;27;20018;-81
2021/08/31 10:00:30;;;;;;;;;;;;;;;28.59;36.79;102734.22;5117559;27;19926;-81
2021/08/31 10:02:55;;;;;;;;;;;;;;;28.90;36.52;102739.63;5118092;27;19916;-81
2021/08/31 10:05:24;;;;;;;;;;;;;;;29.68;34.70;102731.09;5138201;27;19969;-82
2021/08/31 10:07:49;;;;;;;;;;;;;;;29.14;35.91;102741.06;5119825;27;19912;-82
2021/08/31 10:10:15;;;;;;;;;;;;;;;28.52;36.59;102730.25;5119287;27;20391;-81
2021/08/31 10:12:41;;;;;;;;;;;;;;;29.19;36.07;102741.50;5118232;27;19954;-81
2021/08/31 10:15:08;;;;;;;;;;;;;;;28.31;37.43;102746.16;5137301;27;20325;-82
2021/08/31 10:17:33;;;;;;;;;;;;;;;28.05;37.98;102738.34;5120085;27;19931;-83
2021/08/31 10:20:00;;;;;;;;;;;;;;;29.76;34.64;102746.16;5119543;27;20080;-83
2021/08/31 10:22:25;;;;;;;;;;;;;;;28.44;37.03;102741.19;5119078;27;20332;-81
2021/08/31 10:24:51;;;;;;;;;;;;;;;28.91;36.53;102746.06;5119736;28;19995;-82
2021/08/31 10:27:31;;;;;;;;;;;;;;;28.91;37.02;102741.41;5137027;27;19915;-81
2021/08/31 10:30:15;;;;;;;;;;;;;;;28.90;36.64;102749.91;5118925;28;19923;-83
2021/08/31 10:32:43;;;;;;;;;;;;;;;29.06;36.12;102750.16;5138047;27;19972;-83
2021/08/31 10:35:08;;;;;;;;;;;;;;;29.40;35.49;102748.81;5137013;27;19919;-81
2021/08/31 10:37:47;;;;;;;;;;;;;;;29.80;34.47;102756.88;5136064;27;19941;-84
2021/08/31 10:40:31;;;;;;;;;;;;;;;29.25;35.13;102759.56;5117285;28;19919;-82
2021/08/31 10:42:56;;;;;;;;;;;;;;;29.24;35.65;102749.44;5117232;28;19969;-80
2021/08/31 10:45:41;;;;;;;;;;;;;;;29.56;34.95;102760.22;5118740;28;19923;-82
2021/08/31 10:48:22;;;;;;;;;;;;;;;29.39;35.55;102749.84;5118592;28;20326;-83
2021/08/31 10:50:52;;;;;;;;;;;;;;;29.10;35.10;102756.34;5117184;28;19916;-81
2021/08/31 10:53:35;;;;;;;;;;;;;;;28.89;35.34;102762.94;5131292;28;19916;-82
2021/08/31 10:56:21;;;;;;;;;;;;;;;29.34;35.32;102761.44;5118676;28;19915;-83
2021/08/31 10:58:51;;;;;;;;;;;;;;;29.89;34.29;102755.09;5119044;28;19951;-83
2021/08/31 11:01:18;;;;;;;;;;;;;;;28.96;35.45;102766.91;5118892;28;19970;-83
2021/08/31 11:03:43;;;;;;;;;;;;;;;28.78;35.56;102761.19;5119836;28;20009;-83
2021/08/31 11:06:16;;;;;;;;;;;;;;;29.45;34.92;102761.25;5139233;28;20348;-84
2021/08/31 11:08:41;;;;;;;;;;;;;;;29.34;35.17;102755.88;5119867;28;20002;-84
2021/08/31 11:11:16;;;;;;;;;;;;;;;30.50;34.00;102761.09;5119503;28;20403;-82
2021/08/31 11:13:51;;;;;;;;;;;;;;;30.16;33.51;102761.72;5138162;28;19969;-83
2021/08/31 11:16:22;;;;;;;;;;;;;;;30.14;33.19;102763.78;5136133;28;19919;-81
2021/08/31 11:18:47;;;;;;;;;;;;;;;30.03;33.12;102767.69;5117861;28;19915;-82
2021/08/31 11:21:12;;;;;;;;;;;;;;;29.77;33.83;102762.75;5134477;28;20430;-81
2021/08/31 11:23:37;;;;;;;;;;;;;;;30.26;33.21;102762.53;5135323;28;19923;-81
2021/08/31 11:26:05;;;;;;;;;;;;;;;30.14;33.21;102758.19;5135663;28;20011;-80
2021/08/31 11:28:33;;;;;;;;;;;;;;;30.32;32.36;102759.09;5117900;28;20022;-82
2021/08/31 11:30:58;;;;;;;;;;;;;;;29.72;33.79;102759.53;5117824;28;19979;-81
2021/08/31 11:33:28;;;;;;;;;;;;;;;29.48;34.00;102760.06;5118834;28;20391;-82
2021/08/31 11:36:04;;;;;;;;;;;;;;;29.83;33.30;102764.97;5136971;27;19919;-84
2021/08/31 11:38:34;;;;;;;;;;;;;;;29.66;33.65;102758.25;5121717;27;20367;-82
2021/08/31 11:41:14;;;;;;;;;;;;;;;30.20;32.33;102758.44;5140394;27;20368;-82
2021/08/31 11:43:41;;;;;;;;;;;;;;;30.98;31.70;102758.88;5139969;27;19916;-82
2021/08/31 11:46:07;;;;;;;;;;;;;;;30.34;32.58;102759.81;5121990;27;19919;-83
2021/08/31 11:48:34;;;;;;;;;;;;;;;30.71;31.87;102758.84;5120961;27;19926;-83
2021/08/31 11:51:00;;;;;;;;;;;;;;;30.52;32.27;102767.38;5121673;27;19920;-84
2021/08/31 11:53:25;;;;;;;;;;;;;;;29.81;33.38;102766.16;5140981;27;19926;-81
2021/08/31 11:55:58;;;;;;;;;;;;;;;28.47;35.45;102763.19;5122380;27;20002;-81
2021/08/31 11:58:24;;;;;;;;;;;;;;;29.59;33.70;102767.38;5121830;27;19947;-82
2021/08/31 12:00:49;;;;;;;;;;;;;;;29.42;33.99;102771.84;5120431;27;19942;-81
2021/08/31 12:03:22;;;;;;;;;;;;;;;29.70;33.54;102767.19;5138704;27;19916;-81
2021/08/31 12:05:50;;;;;;;;;;;;;;;29.61;33.48;102768.13;5137330;27;19923;-81
2021/08/31 12:08:16;;;;;;;;;;;;;;;30.26;32.63;102767.25;5119195;27;19916;-81
2021/08/31 12:10:41;;;;;;;;;;;;;;;29.12;33.62;102768.19;5119242;27;19922;-81
2021/08/31 12:13:07;;;;;;;;;;;;;;;30.09;31.92;102777.31;5138476;27;19915;-81
2021/08/31 12:15:32;;;;;;;;;;;;;;;29.66;31.94;102763.81;5119784;27;20014;-82
2021/08/31 12:17:59;;;;;;;;;;;;;;;30.64;30.48;102766.09;5120519;27;19916;-82
2021/08/31 12:20:25;;;;;;;;;;;;;;;29.38;33.07;102778.75;5139669;27;19968;-82
2021/08/31 12:22:52;;;;;;;;;;;;;;;29.63;32.54;102777.22;5139486;27;19915;-82
2021/08/31 12:25:18;;;;;;;;;;;;;;;29.61;32.81;102782.94;5141105;27;19915;-81
2021/08/31 12:27:48;;;;;;;;;;;;;;;29.49;33.64;102782.25;5121136;27;19950;-81
2021/08/31 12:30:16;;;;;;;;;;;;;;;30.16;32.81;102778.47;5120465;27;19964;-83
2021/08/31 12:32:42;;;;;;;;;;;;;;;29.94;32.85;102783.44;5121110;27;19922;-81
2021/08/31 12:35:26;;;;;;;;;;;;;;;29.53;33.37;102788.38;5120926;27;19916;-82